createdAt,value
2023-05-09T00:01:47.738Z,101494.66
2023-05-09T00:04:16.203Z,101494.59
2023-05-09T00:06:43.449Z,101492.09
2023-05-09T00:09:10.605Z,101492.22
2023-05-09T00:11:37.804Z,101492.69
2023-05-09T00:14:05.100Z,101494.09
2023-05-09T00:16:33.111Z,101491.69
2023-05-09T00:19:00.430Z,101491.56
2023-05-09T00:21:28.250Z,101499.91
2023-05-09T00:23:55.633Z,101493.97
2023-05-09T00:26:23.376Z,101489.19
2023-05-09T00:28:50.642Z,101483.97
2023-05-09T00:31:17.811Z,101485.38
2023-05-09T00:33:44.989Z,101490.84
2023-05-09T00:36:12.294Z,101488.28
2023-05-09T00:38:39.507Z,101480.69
2023-05-09T00:41:06.730Z,101478.88
2023-05-09T00:43:33.868Z,101481.44
2023-05-09T00:46:01.221Z,101480.88
2023-05-09T00:48:28.570Z,101476.81
2023-05-09T00:50:56.312Z,101477.84
2023-05-09T00:53:25.353Z,101474.00
2023-05-09T00:55:55.849Z,101469.44
2023-05-09T00:58:23.729Z,101469.09
2023-05-09T01:00:50.896Z,101460.66
2023-05-09T01:03:18.281Z,101458.97
2023-05-09T01:05:54.399Z,101446.31
2023-05-09T01:08:59.571Z,101455.09
2023-05-09T01:11:39.146Z,101449.38
2023-05-09T01:14:27.083Z,101441.91
2023-05-09T01:17:12.332Z,101441.06
2023-05-09T01:19:56.656Z,101440.09
2023-05-09T01:22:32.014Z,101422.91
2023-05-09T01:25:45.657Z,101444.34
2023-05-09T01:28:26.158Z,101430.44
2023-05-09T01:30:55.085Z,101424.38
2023-05-09T01:33:26.407Z,101431.78
2023-05-09T01:36:01.711Z,101427.34
2023-05-09T01:38:32.739Z,101423.59
2023-05-09T01:41:05.243Z,101426.63
2023-05-09T01:43:33.644Z,101425.06
2023-05-09T01:46:03.882Z,101424.00
2023-05-09T01:48:31.963Z,101422.22
2023-05-09T01:51:01.290Z,101417.56
2023-05-09T01:53:30.975Z,101414.50
2023-05-09T01:56:00.404Z,101412.75
2023-05-09T01:58:28.805Z,101408.94
2023-05-09T02:00:56.576Z,101412.38
2023-05-09T02:03:25.654Z,101412.91
2023-05-09T02:05:56.692Z,101416.00
2023-05-09T02:08:24.077Z,101415.81
2023-05-09T02:10:51.356Z,101405.88
2023-05-09T02:13:18.878Z,101407.41
2023-05-09T02:15:47.649Z,101401.34
2023-05-09T02:18:14.924Z,101404.81
2023-05-09T02:20:42.134Z,101393.38
2023-05-09T02:23:09.307Z,101404.34
2023-05-09T02:25:38.466Z,101389.53
2023-05-09T02:28:07.231Z,101385.28
2023-05-09T02:30:41.983Z,101396.63
2023-05-09T02:33:13.588Z,101394.19
2023-05-09T02:35:45.087Z,101390.28
2023-05-09T02:38:14.299Z,101386.19
2023-05-09T02:40:44.250Z,101389.75
2023-05-09T02:43:11.504Z,101392.72
2023-05-09T02:45:38.680Z,101387.88
2023-05-09T02:48:08.738Z,101393.47
2023-05-09T02:50:38.327Z,101401.69
2023-05-09T02:53:06.159Z,101393.97
2023-05-09T02:55:33.365Z,101395.75
2023-05-09T02:58:12.803Z,101390.69
2023-05-09T03:00:42.744Z,101397.38
2023-05-09T03:03:10.470Z,101386.84
2023-05-09T03:05:37.735Z,101385.47
2023-05-09T03:08:05.280Z,101382.34
2023-05-09T03:10:32.425Z,101379.34
2023-05-09T03:12:59.852Z,101378.63
2023-05-09T03:15:27.232Z,101382.13
2023-05-09T03:17:54.431Z,101374.94
2023-05-09T03:20:21.600Z,101378.59
2023-05-09T03:22:48.758Z,101373.97
2023-05-09T03:25:16.845Z,101380.38
2023-05-09T03:27:44.381Z,101367.00
2023-05-09T03:30:12.505Z,101373.13
2023-05-09T03:32:39.925Z,101367.06
2023-05-09T03:35:07.746Z,101363.66
2023-05-09T03:37:34.885Z,101375.53
2023-05-09T03:40:02.106Z,101371.16
2023-05-09T03:42:29.290Z,101371.91
2023-05-09T03:44:56.465Z,101368.47
2023-05-09T03:47:23.833Z,101372.28
2023-05-09T03:49:51.040Z,101359.25
2023-05-09T03:52:18.203Z,101367.41
2023-05-09T03:54:45.456Z,101363.97
2023-05-09T03:57:12.591Z,101366.75
2023-05-09T03:59:39.717Z,101364.25
2023-05-09T04:02:07.026Z,101360.09
2023-05-09T04:04:34.349Z,101361.81
2023-05-09T04:07:01.618Z,101356.88
2023-05-09T04:09:28.853Z,101357.94
2023-05-09T04:11:56.010Z,101360.09
2023-05-09T04:14:23.143Z,101355.78
2023-05-09T04:16:50.306Z,101355.03
2023-05-09T04:19:17.477Z,101351.38
2023-05-09T04:21:44.614Z,101349.31
2023-05-09T04:24:11.844Z,101348.19
2023-05-09T04:26:39.341Z,101362.56
2023-05-09T04:29:06.578Z,101351.34
2023-05-09T04:31:33.942Z,101358.25
2023-05-09T04:34:01.371Z,101352.59
2023-05-09T04:36:28.905Z,101348.03
2023-05-09T04:38:56.134Z,101352.09
2023-05-09T04:41:23.979Z,101345.88
2023-05-09T04:43:52.308Z,101342.75
2023-05-09T04:46:19.597Z,101341.28
2023-05-09T04:48:46.776Z,101341.97
2023-05-09T04:51:13.920Z,101337.94
2023-05-09T04:53:41.090Z,101346.84
2023-05-09T04:56:08.238Z,101343.50
2023-05-09T04:58:38.307Z,101341.13
2023-05-09T05:01:06.205Z,101342.34
2023-05-09T05:03:33.633Z,101346.84
2023-05-09T05:06:00.804Z,101337.38
2023-05-09T05:08:27.989Z,101336.91
2023-05-09T05:10:55.223Z,101342.53
2023-05-09T05:13:22.509Z,101343.97
2023-05-09T05:15:50.189Z,101333.75
2023-05-09T05:18:17.447Z,101337.44
2023-05-09T05:20:44.627Z,101337.72
2023-05-09T05:23:12.203Z,101325.22
2023-05-09T05:25:39.376Z,101325.59
2023-05-09T05:28:06.669Z,101326.84
2023-05-09T05:30:34.555Z,101333.25
2023-05-09T05:33:01.922Z,101322.66
2023-05-09T05:35:29.320Z,101325.03
2023-05-09T05:37:56.649Z,101311.94
2023-05-09T05:40:23.820Z,101314.75
2023-05-09T05:42:50.977Z,101306.22
2023-05-09T05:45:18.168Z,101302.66
2023-05-09T05:47:45.606Z,101296.69
2023-05-09T05:50:13.246Z,101292.56
2023-05-09T05:52:41.602Z,101298.66
2023-05-09T05:55:09.308Z,101293.97
2023-05-09T05:57:37.696Z,101290.03
2023-05-09T06:00:10.584Z,101298.97
2023-05-09T06:02:38.129Z,101296.75
2023-05-09T06:05:07.074Z,101290.72
2023-05-09T06:07:34.243Z,101279.09
2023-05-09T06:10:01.407Z,101283.78
2023-05-09T06:12:28.540Z,101279.44
2023-05-09T06:14:55.807Z,101271.56
2023-05-09T06:17:23.047Z,101268.47
2023-05-09T06:19:50.180Z,101274.66
2023-05-09T06:22:17.329Z,101271.91
2023-05-09T06:24:44.466Z,101268.06
2023-05-09T06:27:11.659Z,101261.47
2023-05-09T06:29:38.826Z,101262.72
2023-05-09T06:32:06.014Z,101258.44
2023-05-09T06:34:33.221Z,101257.28
2023-05-09T06:37:00.402Z,101246.81
2023-05-09T06:39:27.647Z,101252.41
2023-05-09T06:41:54.802Z,101249.50
2023-05-09T06:44:22.063Z,101248.03
2023-05-09T06:46:49.331Z,101247.81
2023-05-09T06:49:16.472Z,101257.00
2023-05-09T06:51:43.639Z,101242.34
2023-05-09T06:54:10.812Z,101244.91
2023-05-09T06:56:38.092Z,101228.09
2023-05-09T06:59:05.326Z,101229.81
2023-05-09T07:01:32.597Z,101224.91
2023-05-09T07:04:00.049Z,101221.16
2023-05-09T07:06:27.287Z,101220.88
2023-05-09T07:08:54.504Z,101220.34
2023-05-09T07:11:22.371Z,101218.41
2023-05-09T07:13:49.505Z,101213.09
2023-05-09T07:16:18.375Z,101219.03
2023-05-09T07:18:45.624Z,101207.44
2023-05-09T07:21:12.813Z,101208.88
2023-05-09T07:23:40.025Z,101217.59
2023-05-09T07:26:07.212Z,101206.84
2023-05-09T07:28:34.391Z,101210.59
2023-05-09T07:31:01.564Z,101199.25
2023-05-09T07:33:28.760Z,101197.00
2023-05-09T07:35:57.878Z,101199.34
2023-05-09T07:38:24.984Z,101195.44
2023-05-09T07:40:53.228Z,101184.00
2023-05-09T07:43:20.474Z,101178.31
2023-05-09T07:45:47.661Z,101163.72
2023-05-09T07:48:14.905Z,101167.75
2023-05-09T07:50:42.062Z,101160.03
2023-05-09T07:53:09.210Z,101145.97
2023-05-09T07:55:36.443Z,101149.81
2023-05-09T07:58:03.792Z,101145.03
2023-05-09T08:00:32.156Z,101145.50
2023-05-09T08:02:59.479Z,101129.97
2023-05-09T08:05:27.048Z,101126.63
2023-05-09T08:07:54.197Z,101122.47
2023-05-09T08:10:22.930Z,101117.09
2023-05-09T08:12:50.240Z,101115.53
2023-05-09T08:15:17.588Z,101109.53
2023-05-09T08:17:44.854Z,101106.03
2023-05-09T08:20:13.196Z,101107.06
2023-05-09T08:22:40.755Z,101096.94
2023-05-09T08:25:08.818Z,101091.78
2023-05-09T08:27:35.980Z,101083.13
2023-05-09T08:30:03.257Z,101083.31
2023-05-09T08:32:30.673Z,101083.25
2023-05-09T08:34:57.882Z,101079.84
2023-05-09T08:37:26.030Z,101069.25
2023-05-09T08:39:53.167Z,101064.47
2023-05-09T08:42:25.527Z,101066.28
2023-05-09T08:44:53.557Z,101061.94
2023-05-09T08:47:22.558Z,101064.59
2023-05-09T08:49:51.519Z,101062.03
2023-05-09T08:52:19.076Z,101056.56
2023-05-09T08:54:46.657Z,101047.53
2023-05-09T08:57:15.628Z,101042.91
2023-05-09T08:59:43.492Z,101044.03
2023-05-09T09:02:14.361Z,101020.88
2023-05-09T09:04:41.687Z,101022.16
2023-05-09T09:07:09.944Z,101017.34
2023-05-09T09:09:39.176Z,101026.25
2023-05-09T09:12:09.695Z,101031.91
2023-05-09T09:14:42.794Z,101020.53
2023-05-09T09:17:14.448Z,101027.44
2023-05-09T09:19:44.790Z,101014.25
2023-05-09T09:22:16.019Z,101014.28
2023-05-09T09:24:43.144Z,101008.56
2023-05-09T09:27:10.344Z,101016.84
2023-05-09T09:29:38.739Z,101011.63
2023-05-09T09:32:06.849Z,101016.06
2023-05-09T09:34:34.110Z,101005.97
2023-05-09T09:37:01.318Z,101009.72
2023-05-09T09:39:28.465Z,100986.00
2023-05-09T09:41:55.773Z,100995.03
2023-05-09T09:44:23.386Z,100987.13
2023-05-09T09:46:55.906Z,100988.16
2023-05-09T09:49:26.216Z,100982.44
2023-05-09T09:51:58.384Z,100985.22
2023-05-09T09:54:28.972Z,100980.88
2023-05-09T09:56:56.882Z,100988.13
2023-05-09T09:59:26.668Z,100973.47
2023-05-09T10:02:04.906Z,100980.66
2023-05-09T10:04:37.077Z,100986.91
2023-05-09T10:07:07.203Z,100983.19
2023-05-09T10:09:37.832Z,100953.88
2023-05-09T10:12:08.412Z,100961.38
2023-05-09T10:14:38.176Z,100972.41
2023-05-09T10:17:05.835Z,100953.22
2023-05-09T10:19:35.763Z,100955.97
2023-05-09T10:22:08.128Z,100952.28
2023-05-09T10:24:40.855Z,100946.97
2023-05-09T10:27:12.743Z,100928.84
2023-05-09T10:29:51.414Z,100933.03
2023-05-09T10:32:52.003Z,100938.41
2023-05-09T10:35:26.182Z,100927.97
2023-05-09T10:37:59.449Z,100920.38
2023-05-09T10:40:28.534Z,100921.97
2023-05-09T10:42:55.715Z,100911.94
2023-05-09T10:45:23.429Z,100921.19
2023-05-09T10:47:53.230Z,100913.63
2023-05-09T10:50:21.444Z,100908.72
2023-05-09T10:53:11.429Z,100912.94
2023-05-09T10:55:56.362Z,100911.44
2023-05-09T10:58:33.649Z,100882.78
2023-05-09T11:01:03.663Z,100881.31
2023-05-09T11:03:57.222Z,100886.38
2023-05-09T11:06:51.036Z,100872.09
2023-05-09T11:09:33.484Z,100865.16
2023-05-09T11:12:12.234Z,100855.94
2023-05-09T11:14:45.580Z,100855.16
2023-05-09T11:17:27.455Z,100858.44
2023-05-09T11:20:01.041Z,100855.22
2023-05-09T11:22:32.570Z,100842.25
2023-05-09T11:25:05.053Z,100842.47
2023-05-09T11:27:43.217Z,100844.63
2023-05-09T11:30:17.292Z,100837.81
2023-05-09T11:32:55.425Z,100826.00
2023-05-09T11:35:23.655Z,100834.88
2023-05-09T11:38:00.320Z,100814.13
2023-05-09T11:40:29.829Z,100827.13
2023-05-09T11:42:59.094Z,100810.56
2023-05-09T11:45:32.667Z,100802.16
2023-05-09T11:48:04.012Z,100803.44
2023-05-09T11:50:31.272Z,100786.88
2023-05-09T11:52:58.500Z,100797.38
2023-05-09T11:55:28.043Z,100794.16
2023-05-09T11:57:55.922Z,100790.41
2023-05-09T12:00:25.587Z,100796.59
2023-05-09T12:02:53.750Z,100782.72
2023-05-09T12:05:23.167Z,100786.53
2023-05-09T12:07:52.318Z,100782.16
2023-05-09T12:10:25.382Z,100776.06
2023-05-09T12:12:55.612Z,100780.56
2023-05-09T12:15:23.751Z,100766.72
2023-05-09T12:18:06.829Z,100773.38
2023-05-09T12:20:50.334Z,100764.28
2023-05-09T12:23:19.439Z,100747.97
2023-05-09T12:25:57.297Z,100746.41
2023-05-09T12:28:26.493Z,100732.47
2023-05-09T12:30:54.733Z,100735.81
2023-05-09T12:33:22.418Z,100735.91
2023-05-09T12:36:04.102Z,100734.06
2023-05-09T12:38:32.146Z,100736.94
2023-05-09T12:41:29.558Z,100720.84
2023-05-09T12:43:57.853Z,100715.41
2023-05-09T12:46:25.575Z,100716.56
2023-05-09T12:48:52.849Z,100713.88
2023-05-09T12:51:22.192Z,100724.06
2023-05-09T12:53:49.717Z,100715.41
2023-05-09T12:56:20.167Z,100708.72
2023-05-09T12:58:55.371Z,100711.38
2023-05-09T13:01:28.410Z,100705.44
2023-05-09T13:04:04.458Z,100699.44
2023-05-09T13:06:32.348Z,100717.25
2023-05-09T13:09:02.804Z,100705.63
2023-05-09T13:11:30.196Z,100701.19
2023-05-09T13:13:58.349Z,100708.09
2023-05-09T13:16:25.746Z,100695.06
2023-05-09T13:18:52.938Z,100703.03
2023-05-09T13:21:20.226Z,100692.81
2023-05-09T13:23:49.888Z,100696.41
2023-05-09T13:26:17.149Z,100706.50
2023-05-09T13:28:44.311Z,100694.56
2023-05-09T13:31:11.498Z,100684.13
2023-05-09T13:33:38.916Z,100688.53
2023-05-09T13:36:07.074Z,100681.78
2023-05-09T13:38:38.667Z,100686.00
2023-05-09T13:41:07.385Z,100671.69
2023-05-09T13:43:35.803Z,100683.53
2023-05-09T13:46:03.486Z,100673.38
2023-05-09T13:48:30.706Z,100672.50
2023-05-09T13:50:59.784Z,100679.34
2023-05-09T13:53:27.017Z,100650.34
2023-05-09T13:55:54.160Z,100651.00
2023-05-09T13:58:21.360Z,100655.44
2023-05-09T14:00:48.656Z,100657.22
2023-05-09T14:03:15.837Z,100646.78
2023-05-09T14:05:43.032Z,100652.22
2023-05-09T14:08:11.055Z,100653.97
2023-05-09T14:10:38.235Z,100636.63
2023-05-09T14:13:05.482Z,100639.91
2023-05-09T14:15:32.701Z,100635.88
2023-05-09T14:17:59.900Z,100627.56
2023-05-09T14:20:27.519Z,100625.84
2023-05-09T14:22:55.170Z,100626.59
2023-05-09T14:25:22.582Z,100627.38
2023-05-09T14:27:49.755Z,100622.44
2023-05-09T14:30:17.151Z,100623.22
2023-05-09T14:32:44.534Z,100620.69
2023-05-09T14:35:11.805Z,100615.69
2023-05-09T14:37:39.564Z,100611.53
2023-05-09T14:40:08.566Z,100605.66
2023-05-09T14:42:36.845Z,100604.69
2023-05-09T14:45:06.837Z,100610.75
2023-05-09T14:47:34.362Z,100597.16
2023-05-09T14:50:01.624Z,100590.28
2023-05-09T14:52:29.131Z,100589.38
2023-05-09T14:54:56.329Z,100579.13
2023-05-09T14:57:23.550Z,100568.03
2023-05-09T14:59:50.698Z,100574.13
2023-05-09T15:02:17.878Z,100571.69
2023-05-09T15:04:45.022Z,100569.00
2023-05-09T15:07:12.507Z,100566.53
2023-05-09T15:09:39.643Z,100559.78
2023-05-09T15:12:06.911Z,100557.91
2023-05-09T15:14:34.081Z,100560.72
2023-05-09T15:17:04.126Z,100549.69
2023-05-09T15:19:32.421Z,100556.50
2023-05-09T15:22:00.432Z,100542.91
2023-05-09T15:24:27.686Z,100547.09
2023-05-09T15:26:55.050Z,100542.03
2023-05-09T15:29:22.191Z,100536.09
2023-05-09T15:31:49.434Z,100531.00
2023-05-09T15:34:16.997Z,100528.47
2023-05-09T15:36:44.185Z,100526.78
2023-05-09T15:39:11.344Z,100523.28
2023-05-09T15:41:38.460Z,100525.09
2023-05-09T15:44:05.609Z,100525.09
2023-05-09T15:46:33.560Z,100526.78
2023-05-09T15:49:00.704Z,100530.25
2023-05-09T15:51:29.939Z,100523.41
2023-05-09T15:53:57.090Z,100513.22
2023-05-09T15:56:24.244Z,100520.84
2023-05-09T15:58:51.481Z,100509.81
2023-05-09T16:01:19.022Z,100508.19
2023-05-09T16:03:46.460Z,100512.44
2023-05-09T16:06:14.075Z,100497.91
2023-05-09T16:08:41.197Z,100509.88
2023-05-09T16:11:08.554Z,100493.75
2023-05-09T16:13:36.255Z,100489.50
2023-05-09T16:16:04.060Z,100483.59
2023-05-09T16:18:31.479Z,100488.69
2023-05-09T16:20:59.591Z,100491.25
2023-05-09T16:23:26.810Z,100489.56
2023-05-09T16:25:54.071Z,100482.75
2023-05-09T16:28:23.426Z,100489.53
2023-05-09T16:30:54.052Z,100481.91
2023-05-09T16:33:21.245Z,100480.25
2023-05-09T16:35:48.442Z,100482.75
2023-05-09T16:38:15.582Z,100480.22
2023-05-09T16:40:42.839Z,100479.41
2023-05-09T16:43:10.027Z,100479.41
2023-05-09T16:45:37.253Z,100464.97
2023-05-09T16:48:04.868Z,100471.75
2023-05-09T16:50:32.095Z,100472.59
2023-05-09T16:52:59.307Z,100468.34
2023-05-09T16:55:26.682Z,100457.34
2023-05-09T16:57:53.824Z,100459.03
2023-05-09T17:00:22.074Z,100459.03
2023-05-09T17:02:49.242Z,100457.34
2023-05-09T17:05:16.408Z,100453.06
2023-05-09T17:07:43.528Z,100452.28
2023-05-09T17:10:11.530Z,100459.88
2023-05-09T17:12:39.432Z,100439.53
2023-05-09T17:15:08.601Z,100446.34
2023-05-09T17:17:36.116Z,100445.44
2023-05-09T17:20:04.477Z,100439.53
2023-05-09T17:22:32.002Z,100444.63
2023-05-09T17:24:59.134Z,100432.66
2023-05-09T17:27:27.072Z,100437.72
2023-05-09T17:29:54.230Z,100425.97
2023-05-09T17:32:21.480Z,100434.38
2023-05-09T17:34:48.648Z,100434.41
2023-05-09T17:37:16.966Z,100425.97
2023-05-09T17:39:44.290Z,100425.91
2023-05-09T17:42:12.441Z,100420.78
2023-05-09T17:44:40.207Z,100416.53
2023-05-09T17:47:08.315Z,100429.22
2023-05-09T17:49:36.378Z,100417.41
2023-05-09T17:52:03.556Z,100421.63
2023-05-09T17:54:30.719Z,100414.81
2023-05-09T17:57:01.244Z,100415.66
2023-05-09T17:59:28.722Z,100410.56
2023-05-09T18:01:56.000Z,100404.66
2023-05-09T18:04:23.295Z,100418.19
2023-05-09T18:06:50.625Z,100413.97
2023-05-09T18:09:17.836Z,100414.72
2023-05-09T18:11:44.990Z,100411.41
2023-05-09T18:14:12.888Z,100411.41
2023-05-09T18:16:40.144Z,100407.16
2023-05-09T18:19:07.294Z,100407.91
2023-05-09T18:21:34.622Z,100408.75
2023-05-09T18:24:01.877Z,100408.81
2023-05-09T18:26:29.068Z,100405.41
2023-05-09T18:28:56.274Z,100408.84
2023-05-09T18:31:23.801Z,100406.13
2023-05-09T18:33:51.162Z,100404.44
2023-05-09T18:36:18.598Z,100405.34
2023-05-09T18:38:46.656Z,100405.38
2023-05-09T18:41:15.602Z,100401.78
2023-05-09T18:43:46.456Z,100395.88
2023-05-09T18:46:17.529Z,100405.94
2023-05-09T18:48:46.434Z,100398.44
2023-05-09T18:51:13.607Z,100400.78
2023-05-09T18:53:41.282Z,100398.41
2023-05-09T18:56:09.141Z,100396.66
2023-05-09T18:58:36.849Z,100395.72
2023-05-09T19:01:04.867Z,100396.31
2023-05-09T19:03:32.035Z,100393.03
2023-05-09T19:05:59.811Z,100399.81
2023-05-09T19:08:27.275Z,100402.19
2023-05-09T19:10:54.550Z,100404.03
2023-05-09T19:13:21.878Z,100410.59
2023-05-09T19:15:49.163Z,100415.75
2023-05-09T19:18:16.660Z,100414.94
2023-05-09T19:20:43.864Z,100405.56
2023-05-09T19:23:12.016Z,100417.22
2023-05-09T19:25:39.234Z,100400.53
2023-05-09T19:28:06.444Z,100413.72
2023-05-09T19:30:34.044Z,100412.91
2023-05-09T19:33:01.394Z,100410.38
2023-05-09T19:35:28.582Z,100410.88
2023-05-09T19:37:55.731Z,100405.09
2023-05-09T19:40:22.889Z,100405.25
2023-05-09T19:42:50.053Z,100397.50
2023-05-09T19:45:17.339Z,100403.38
2023-05-09T19:47:44.511Z,100401.06
2023-05-09T19:50:11.778Z,100397.25
2023-05-09T19:52:38.904Z,100388.91
2023-05-09T19:55:07.033Z,100388.00
2023-05-09T19:57:34.274Z,100391.78
2023-05-09T20:00:01.589Z,100393.53
2023-05-09T20:02:29.203Z,100382.13
2023-05-09T20:04:56.411Z,100386.31
2023-05-09T20:07:23.572Z,100378.69
2023-05-09T20:09:50.776Z,100385.31
2023-05-09T20:12:18.269Z,100391.25
2023-05-09T20:14:45.464Z,100383.44
2023-05-09T20:17:12.748Z,100379.91
2023-05-09T20:19:40.075Z,100378.91
2023-05-09T20:22:07.340Z,100368.28
2023-05-09T20:24:34.502Z,100379.97
2023-05-09T20:27:03.040Z,100371.53
2023-05-09T20:29:30.281Z,100366.34
2023-05-09T20:31:57.492Z,100369.56
2023-05-09T20:34:24.807Z,100362.06
2023-05-09T20:36:55.057Z,100366.41
2023-05-09T20:39:23.179Z,100361.16
2023-05-09T20:41:52.162Z,100364.78
2023-05-09T20:44:19.400Z,100361.09
2023-05-09T20:46:46.650Z,100348.56
2023-05-09T20:49:14.635Z,100357.59
2023-05-09T20:51:41.893Z,100354.44
2023-05-09T20:54:09.086Z,100344.13
2023-05-09T20:56:36.417Z,100342.50
2023-05-09T20:59:04.195Z,100345.22
2023-05-09T21:01:35.373Z,100348.25
2023-05-09T21:04:08.156Z,100344.22
2023-05-09T21:06:38.109Z,100335.22
2023-05-09T21:09:09.294Z,100329.56
2023-05-09T21:11:38.259Z,100333.47
2023-05-09T21:14:06.172Z,100333.63
2023-05-09T21:16:33.436Z,100324.38
2023-05-09T21:19:02.625Z,100322.91
2023-05-09T21:21:31.510Z,100313.34
2023-05-09T21:24:04.152Z,100319.31
2023-05-09T21:26:32.443Z,100320.94
2023-05-09T21:28:59.618Z,100317.13
2023-05-09T21:31:26.880Z,100319.63
2023-05-09T21:33:54.078Z,100321.06
2023-05-09T21:36:21.251Z,100320.19
2023-05-09T21:38:48.390Z,100314.09
2023-05-09T21:41:15.827Z,100306.41
2023-05-09T21:43:43.060Z,100315.84
2023-05-09T21:46:10.538Z,100306.47
2023-05-09T21:48:37.810Z,100312.69
2023-05-09T21:51:07.509Z,100303.75
2023-05-09T21:53:34.666Z,100305.63
2023-05-09T21:56:02.177Z,100305.31
2023-05-09T21:58:29.307Z,100294.81
2023-05-09T22:00:56.436Z,100305.28
2023-05-09T22:03:23.950Z,100297.28
2023-05-09T22:05:51.171Z,100297.63
2023-05-09T22:08:18.315Z,100292.06
2023-05-09T22:10:45.476Z,100286.03
2023-05-09T22:13:12.679Z,100284.31
2023-05-09T22:15:39.919Z,100281.09
2023-05-09T22:18:07.085Z,100285.31
2023-05-09T22:20:34.409Z,100279.13
2023-05-09T22:23:01.700Z,100271.59
2023-05-09T22:25:28.987Z,100273.38
2023-05-09T22:27:56.709Z,100278.63
2023-05-09T22:30:24.311Z,100270.72
2023-05-09T22:32:51.647Z,100277.78
2023-05-09T22:35:18.850Z,100267.31
2023-05-09T22:37:46.029Z,100270.66
2023-05-09T22:40:13.859Z,100265.63
2023-05-09T22:42:41.213Z,100273.28
2023-05-09T22:45:09.060Z,100269.56
2023-05-09T22:47:36.611Z,100271.97
2023-05-09T22:50:04.124Z,100264.81
2023-05-09T22:52:31.597Z,100262.25
2023-05-09T22:54:58.774Z,100263.50
2023-05-09T22:57:26.103Z,100261.91
2023-05-09T22:59:53.798Z,100254.47
2023-05-09T23:02:21.230Z,100255.94
2023-05-09T23:04:48.592Z,100255.91
2023-05-09T23:07:15.849Z,100253.53
2023-05-09T23:09:43.138Z,100241.25
2023-05-09T23:12:10.725Z,100247.81
2023-05-09T23:14:38.059Z,100238.53
2023-05-09T23:17:05.210Z,100249.41
2023-05-09T23:19:32.769Z,100240.03
2023-05-09T23:21:59.979Z,100237.78
2023-05-09T23:24:27.228Z,100233.13
2023-05-09T23:26:54.488Z,100234.00
2023-05-09T23:29:21.844Z,100232.13
2023-05-09T23:31:49.389Z,100227.16
2023-05-09T23:34:17.524Z,100222.44
2023-05-09T23:36:44.736Z,100219.28
2023-05-09T23:39:12.133Z,100211.97
2023-05-09T23:41:39.469Z,100215.25
2023-05-09T23:44:07.592Z,100216.44
2023-05-09T23:46:35.055Z,100216.91
2023-05-09T23:49:02.233Z,100213.56
2023-05-09T23:51:29.404Z,100216.31
2023-05-09T23:53:56.960Z,100209.84
2023-05-09T23:56:25.262Z,100207.44
2023-05-09T23:58:52.502Z,100207.66
